PWSweather.com
Personal Weather Stations
Station Observations
KIDJEROME
Sse Jerome Butte , Jerome, ID 83338

Sse Jerome Butte Jerome, ID 83338

Lat: 42.6981891, Lon: -114.4041362

Elevation: 3960

Station Type: Davis Vantage Pro 2

High Low Average
Temperature 34.4°F1.3°C 18.3°F-7.6°C 24.6°F-4.1°C
Dew Point 23.7°F-4.6°C 16.9°F-8.4°C 20.5°F-6.4°C
Winds 10.0 mph 16.1 kmh Calm Calm 3.0 mph ESE4.8 kmh ESE
Wind Gusts 13.0 mph20.9 kmh -- 5.0 mph8.0 kmh
Humidity 94% 63% 85%
Pressure 30.87 in1045.4 mb 30.73 in1040.6 mb -
Precipitation 0.00 in0.0 mm - -
Hour Temp Dew Point Humidity Winds Wind Gusts Pressure Precip Precip Rate Daily Precip Total
12:00 AM 20.7°F-6.3°C 18.7°F-7.4°C 92% Calm Calm -- 30.74 in1041.0 mb 0.00 in0.0 mm 0.00 in0.0 mm 0.00 in0.0 mm
12:15 AM 20.1°F-6.6°C 18.1°F-7.7°C 92% Calm Calm 3.0 mph4.8 kmh 30.73 in1040.6 mb 0.00 in0.0 mm 0.00 in0.0 mm 0.00 in0.0 mm
12:30 AM 20.3°F-6.5°C 18.6°F-7.4°C 93% 3.0 mph NNW4.8 kmh NNW 4.0 mph6.4 kmh 30.75 in1041.3 mb 0.00 in0.0 mm 0.00 in0.0 mm 0.00 in0.0 mm
12:45 AM 20.5°F-6.4°C 18.8°F-7.3°C 93% 1.0 mph NNW1.6 kmh NNW 2.0 mph3.2 kmh 30.74 in1041.0 mb 0.00 in0.0 mm 0.00 in0.0 mm 0.00 in0.0 mm
01:00 AM 19.5°F-6.9°C 17.3°F-8.2°C 91% Calm Calm -- 30.74 in1041.0 mb 0.00 in0.0 mm 0.00 in0.0 mm 0.00 in0.0 mm
01:15 AM 19.6°F-6.9°C 17.9°F-7.8°C 93% Calm Calm -- 30.75 in1041.3 mb 0.00 in0.0 mm 0.00 in0.0 mm 0.00 in0.0 mm
01:30 AM 19.5°F-6.9°C 17.8°F-7.9°C 93% Calm Calm 5.0 mph8.0 kmh 30.75 in1041.3 mb 0.00 in0.0 mm 0.00 in0.0 mm 0.00 in0.0 mm
01:45 AM 19.5°F-6.9°C 17.8°F-7.9°C 93% 3.0 mph ENE4.8 kmh ENE 4.0 mph6.4 kmh 30.75 in1041.3 mb 0.00 in0.0 mm 0.00 in0.0 mm 0.00 in0.0 mm
02:00 AM 19.7°F-6.8°C 17.8°F-7.9°C 92% 1.0 mph ENE1.6 kmh ENE 3.0 mph4.8 kmh 30.76 in1041.7 mb 0.00 in0.0 mm 0.00 in0.0 mm 0.00 in0.0 mm
02:15 AM 19.1°F-7.2°C 17.2°F-8.2°C 92% 1.0 mph ENE1.6 kmh ENE 5.0 mph8.0 kmh 30.76 in1041.7 mb 0.00 in0.0 mm 0.00 in0.0 mm 0.00 in0.0 mm
02:30 AM 19.0°F-7.2°C 17.3°F-8.2°C 93% 4.0 mph ENE6.4 kmh ENE 6.0 mph9.7 kmh 30.76 in1041.7 mb 0.00 in0.0 mm 0.00 in0.0 mm 0.00 in0.0 mm
02:45 AM 19.2°F-7.1°C 17.3°F-8.2°C 92% 5.0 mph ENE8.0 kmh ENE 8.0 mph12.9 kmh 30.76 in1041.7 mb 0.00 in0.0 mm 0.00 in0.0 mm 0.00 in0.0 mm
03:00 AM 19.3°F-7.1°C 17.6°F-8.0°C 93% 4.0 mph ENE6.4 kmh ENE 6.0 mph9.7 kmh 30.77 in1042.0 mb 0.00 in0.0 mm 0.00 in0.0 mm 0.00 in0.0 mm
03:15 AM 19.4°F-7.0°C 17.5°F-8.1°C 92% 4.0 mph ENE6.4 kmh ENE 6.0 mph9.7 kmh 30.77 in1042.0 mb 0.00 in0.0 mm 0.00 in0.0 mm 0.00 in0.0 mm
03:30 AM 19.3°F-7.1°C 17.4°F-8.1°C 92% 4.0 mph NE6.4 kmh NE 6.0 mph9.7 kmh 30.77 in1042.0 mb 0.00 in0.0 mm 0.00 in0.0 mm 0.00 in0.0 mm
03:45 AM 19.6°F-6.9°C 17.9°F-7.8°C 93% 4.0 mph ENE6.4 kmh ENE 6.0 mph9.7 kmh 30.77 in1042.0 mb 0.00 in0.0 mm 0.00 in0.0 mm 0.00 in0.0 mm
04:00 AM 19.3°F-7.1°C 17.4°F-8.1°C 92% 3.0 mph ENE4.8 kmh ENE 4.0 mph6.4 kmh 30.77 in1042.0 mb 0.00 in0.0 mm 0.00 in0.0 mm 0.00 in0.0 mm
04:15 AM 19.1°F-7.2°C 17.4°F-8.1°C 93% 2.0 mph ENE3.2 kmh ENE 4.0 mph6.4 kmh 30.77 in1042.0 mb 0.00 in0.0 mm 0.00 in0.0 mm 0.00 in0.0 mm
04:30 AM 19.4°F-7.0°C 17.5°F-8.1°C 92% 1.0 mph 1.6 kmh -- 30.77 in1042.0 mb 0.00 in0.0 mm 0.00 in0.0 mm 0.00 in0.0 mm
04:45 AM 19.2°F-7.1°C 17.5°F-8.1°C 93% Calm Calm -- 30.76 in1041.7 mb 0.00 in0.0 mm 0.00 in0.0 mm 0.00 in0.0 mm
05:00 AM 19.0°F-7.2°C 17.3°F-8.2°C 93% Calm Calm -- 30.76 in1041.7 mb 0.00 in0.0 mm 0.00 in0.0 mm 0.00 in0.0 mm
05:15 AM 19.1°F-7.2°C 17.4°F-8.1°C 93% 3.0 mph ENE4.8 kmh ENE 6.0 mph9.7 kmh 30.77 in1042.0 mb 0.00 in0.0 mm 0.00 in0.0 mm 0.00 in0.0 mm
05:30 AM 20.2°F-6.6°C 18.5°F-7.5°C 93% 4.0 mph ENE6.4 kmh ENE 6.0 mph9.7 kmh 30.77 in1042.0 mb 0.00 in0.0 mm 0.00 in0.0 mm 0.00 in0.0 mm
05:45 AM 20.8°F-6.2°C 19.1°F-7.2°C 93% 3.0 mph ENE4.8 kmh ENE 6.0 mph9.7 kmh 30.78 in1042.3 mb 0.00 in0.0 mm 0.00 in0.0 mm 0.00 in0.0 mm
06:00 AM 21.1°F-6.1°C 19.4°F-7.0°C 93% 4.0 mph ENE6.4 kmh ENE 6.0 mph9.7 kmh 30.79 in1042.7 mb 0.00 in0.0 mm 0.00 in0.0 mm 0.00 in0.0 mm
06:15 AM 21.6°F-5.8°C 19.9°F-6.7°C 93% 5.0 mph NE8.0 kmh NE 6.0 mph9.7 kmh 30.80 in1043.0 mb 0.00 in0.0 mm 0.00 in0.0 mm 0.00 in0.0 mm
06:30 AM 22.1°F-5.5°C 20.4°F-6.4°C 93% 4.0 mph ENE6.4 kmh ENE 7.0 mph11.3 kmh 30.80 in1043.0 mb 0.00 in0.0 mm 0.00 in0.0 mm 0.00 in0.0 mm
06:45 AM 22.5°F-5.3°C 20.8°F-6.2°C 93% 3.0 mph ENE4.8 kmh ENE 5.0 mph8.0 kmh 30.80 in1043.0 mb 0.00 in0.0 mm 0.00 in0.0 mm 0.00 in0.0 mm
07:00 AM 23.0°F-5.0°C 21.3°F-5.9°C 93% 3.0 mph ENE4.8 kmh ENE 4.0 mph6.4 kmh 30.80 in1043.0 mb 0.00 in0.0 mm 0.00 in0.0 mm 0.00 in0.0 mm
07:15 AM 23.2°F-4.9°C 21.5°F-5.8°C 93% 1.0 mph ENE1.6 kmh ENE 1.0 mph1.6 kmh 30.80 in1043.0 mb 0.00 in0.0 mm 0.00 in0.0 mm 0.00 in0.0 mm
07:30 AM 23.3°F-4.8°C 21.6°F-5.8°C 93% 1.0 mph ENE1.6 kmh ENE 3.0 mph4.8 kmh 30.81 in1043.3 mb 0.00 in0.0 mm 0.00 in0.0 mm 0.00 in0.0 mm
07:45 AM 23.8°F-4.6°C 22.1°F-5.5°C 93% 3.0 mph E4.8 kmh E 4.0 mph6.4 kmh 30.82 in1043.7 mb 0.00 in0.0 mm 0.00 in0.0 mm 0.00 in0.0 mm
08:00 AM 24.3°F-4.3°C 22.6°F-5.2°C 93% 4.0 mph E6.4 kmh E 8.0 mph12.9 kmh 30.82 in1043.7 mb 0.00 in0.0 mm 0.00 in0.0 mm 0.00 in0.0 mm
08:15 AM 24.5°F-4.2°C 22.5°F-5.3°C 92% 5.0 mph E8.0 kmh E 7.0 mph11.3 kmh 30.81 in1043.3 mb 0.00 in0.0 mm 0.00 in0.0 mm 0.00 in0.0 mm
08:30 AM 24.6°F-4.1°C 22.6°F-5.2°C 92% 5.0 mph E8.0 kmh E 7.0 mph11.3 kmh 30.82 in1043.7 mb 0.00 in0.0 mm 0.00 in0.0 mm 0.00 in0.0 mm
08:45 AM 24.9°F-3.9°C 22.9°F-5.1°C 92% 6.0 mph E9.7 kmh E 10.0 mph16.1 kmh 30.84 in1044.4 mb 0.00 in0.0 mm 0.00 in0.0 mm 0.00 in0.0 mm
09:00 AM 25.2°F-3.8°C 22.9°F-5.1°C 91% 6.0 mph E9.7 kmh E 9.0 mph14.5 kmh 30.84 in1044.4 mb 0.00 in0.0 mm 0.00 in0.0 mm 0.00 in0.0 mm
09:15 AM 25.0°F-3.9°C 22.5°F-5.3°C 90% 6.0 mph E9.7 kmh E 9.0 mph14.5 kmh 30.83 in1044.0 mb 0.00 in0.0 mm 0.00 in0.0 mm 0.00 in0.0 mm
09:30 AM 25.2°F-3.8°C 22.7°F-5.2°C 90% 7.0 mph E11.3 kmh E 10.0 mph16.1 kmh 30.85 in1044.7 mb 0.00 in0.0 mm 0.00 in0.0 mm 0.00 in0.0 mm
09:45 AM 25.8°F-3.4°C 22.7°F-5.2°C 88% 7.0 mph E11.3 kmh E 10.0 mph16.1 kmh 30.86 in1045.0 mb 0.00 in0.0 mm 0.00 in0.0 mm 0.00 in0.0 mm
10:00 AM 26.0°F-3.3°C 22.9°F-5.1°C 88% 9.0 mph E14.5 kmh E 12.0 mph19.3 kmh 30.87 in1045.4 mb 0.00 in0.0 mm 0.00 in0.0 mm 0.00 in0.0 mm
10:15 AM 26.0°F-3.3°C 22.7°F-5.2°C 87% 10.0 mph E16.1 kmh E 13.0 mph20.9 kmh 30.87 in1045.4 mb 0.00 in0.0 mm 0.00 in0.0 mm 0.00 in0.0 mm
10:30 AM 26.6°F-3.0°C 23.0°F-5.0°C 86% 8.0 mph E12.9 kmh E 10.0 mph16.1 kmh 30.87 in1045.4 mb 0.00 in0.0 mm 0.00 in0.0 mm 0.00 in0.0 mm
10:45 AM 27.2°F-2.7°C 23.6°F-4.7°C 86% 6.0 mph E9.7 kmh E 10.0 mph16.1 kmh 30.87 in1045.4 mb 0.00 in0.0 mm 0.00 in0.0 mm 0.00 in0.0 mm
11:00 AM 27.7°F-2.4°C 23.5°F-4.7°C 84% 7.0 mph SE11.3 kmh SE 10.0 mph16.1 kmh 30.86 in1045.0 mb 0.00 in0.0 mm 0.00 in0.0 mm 0.00 in0.0 mm
11:15 AM 28.2°F-2.1°C 23.7°F-4.6°C 83% 6.0 mph ESE9.7 kmh ESE 11.0 mph17.7 kmh 30.86 in1045.0 mb 0.00 in0.0 mm 0.00 in0.0 mm 0.00 in0.0 mm
11:30 AM 28.3°F-2.1°C 23.2°F-4.9°C 81% 7.0 mph ESE11.3 kmh ESE 10.0 mph16.1 kmh 30.86 in1045.0 mb 0.00 in0.0 mm 0.00 in0.0 mm 0.00 in0.0 mm
11:45 AM 28.3°F-2.1°C 22.3°F-5.4°C 78% 7.0 mph ENE11.3 kmh ENE 12.0 mph19.3 kmh 30.86 in1045.0 mb 0.00 in0.0 mm 0.00 in0.0 mm 0.00 in0.0 mm
12:00 PM 28.5°F-1.9°C 22.2°F-5.4°C 77% 7.0 mph E11.3 kmh E 11.0 mph17.7 kmh 30.85 in1044.7 mb 0.00 in0.0 mm 0.00 in0.0 mm 0.00 in0.0 mm
12:15 PM 29.3°F-1.5°C 22.7°F-5.2°C 76% 7.0 mph E11.3 kmh E 10.0 mph16.1 kmh 30.85 in1044.7 mb 0.00 in0.0 mm 0.00 in0.0 mm 0.00 in0.0 mm
12:30 PM 30.2°F-1.0°C 23.2°F-4.9°C 75% 6.0 mph SE9.7 kmh SE 9.0 mph14.5 kmh 30.84 in1044.4 mb 0.00 in0.0 mm 0.00 in0.0 mm 0.00 in0.0 mm
12:45 PM 30.6°F-0.8°C 23.0°F-5.0°C 73% 5.0 mph ESE8.0 kmh ESE 9.0 mph14.5 kmh 30.84 in1044.4 mb 0.00 in0.0 mm 0.00 in0.0 mm 0.00 in0.0 mm
01:00 PM 30.7°F-0.7°C 23.4°F-4.8°C 74% 4.0 mph E6.4 kmh E 8.0 mph12.9 kmh 30.83 in1044.0 mb 0.00 in0.0 mm 0.00 in0.0 mm 0.00 in0.0 mm
01:15 PM 31.4°F-0.3°C 23.1°F-4.9°C 71% 2.0 mph ESE3.2 kmh ESE 6.0 mph9.7 kmh 30.82 in1043.7 mb 0.00 in0.0 mm 0.00 in0.0 mm 0.00 in0.0 mm
01:30 PM 31.6°F-0.2°C 22.9°F-5.1°C 70% 1.0 mph ESE1.6 kmh ESE 5.0 mph8.0 kmh 30.81 in1043.3 mb 0.00 in0.0 mm 0.00 in0.0 mm 0.00 in0.0 mm
01:45 PM 32.8°F0.4°C 23.4°F-4.8°C 68% Calm Calm -- 30.81 in1043.3 mb 0.00 in0.0 mm 0.00 in0.0 mm 0.00 in0.0 mm
02:00 PM 32.8°F0.4°C 22.7°F-5.2°C 66% Calm Calm 4.0 mph6.4 kmh 30.81 in1043.3 mb 0.00 in0.0 mm 0.00 in0.0 mm 0.00 in0.0 mm
02:15 PM 33.1°F0.6°C 23.7°F-4.6°C 68% 1.0 mph NE1.6 kmh NE 4.0 mph6.4 kmh 30.81 in1043.3 mb 0.00 in0.0 mm 0.00 in0.0 mm 0.00 in0.0 mm
02:30 PM 33.3°F0.7°C 23.5°F-4.7°C 67% 1.0 mph E1.6 kmh E 8.0 mph12.9 kmh 30.81 in1043.3 mb 0.00 in0.0 mm 0.00 in0.0 mm 0.00 in0.0 mm
02:45 PM 33.4°F0.8°C 23.3°F-4.8°C 66% 1.0 mph E1.6 kmh E 4.0 mph6.4 kmh 30.80 in1043.0 mb 0.00 in0.0 mm 0.00 in0.0 mm 0.00 in0.0 mm
03:00 PM 33.3°F0.7°C 22.8°F-5.1°C 65% 1.0 mph E1.6 kmh E 4.0 mph6.4 kmh 30.80 in1043.0 mb 0.00 in0.0 mm 0.00 in0.0 mm 0.00 in0.0 mm
03:15 PM 34.4°F1.3°C 23.5°F-4.7°C 64% Calm Calm 6.0 mph9.7 kmh 30.80 in1043.0 mb 0.00 in0.0 mm 0.00 in0.0 mm 0.00 in0.0 mm
03:30 PM 33.4°F0.8°C 22.5°F-5.3°C 64% 3.0 mph NE4.8 kmh NE 8.0 mph12.9 kmh 30.80 in1043.0 mb 0.00 in0.0 mm 0.00 in0.0 mm 0.00 in0.0 mm
03:45 PM 33.3°F0.7°C 22.1°F-5.5°C 63% 2.0 mph NNE3.2 kmh NNE 4.0 mph6.4 kmh 30.80 in1043.0 mb 0.00 in0.0 mm 0.00 in0.0 mm 0.00 in0.0 mm
04:00 PM 33.3°F0.7°C 22.1°F-5.5°C 63% 1.0 mph NE1.6 kmh NE 4.0 mph6.4 kmh 30.81 in1043.3 mb 0.00 in0.0 mm 0.00 in0.0 mm 0.00 in0.0 mm
04:15 PM 33.1°F0.6°C 22.2°F-5.4°C 64% 1.0 mph NE1.6 kmh NE 3.0 mph4.8 kmh 30.81 in1043.3 mb 0.00 in0.0 mm 0.00 in0.0 mm 0.00 in0.0 mm
04:30 PM 32.8°F0.4°C 22.0°F-5.6°C 64% 1.0 mph NE1.6 kmh NE 3.0 mph4.8 kmh 30.82 in1043.7 mb 0.00 in0.0 mm 0.00 in0.0 mm 0.00 in0.0 mm
04:45 PM 32.5°F0.3°C 21.7°F-5.7°C 64% Calm Calm -- 30.81 in1043.3 mb 0.00 in0.0 mm 0.00 in0.0 mm 0.00 in0.0 mm
05:00 PM 31.8°F-0.1°C 21.4°F-5.9°C 65% Calm Calm -- 30.81 in1043.3 mb 0.00 in0.0 mm 0.00 in0.0 mm 0.00 in0.0 mm
05:15 PM 30.0°F-1.1°C 20.7°F-6.3°C 68% Calm Calm -- 30.82 in1043.7 mb 0.00 in0.0 mm 0.00 in0.0 mm 0.00 in0.0 mm
05:30 PM 27.1°F-2.7°C 19.3°F-7.1°C 72% Calm Calm -- 30.82 in1043.7 mb 0.00 in0.0 mm 0.00 in0.0 mm 0.00 in0.0 mm
05:45 PM 25.4°F-3.7°C 19.5°F-6.9°C 78% Calm Calm -- 30.82 in1043.7 mb 0.00 in0.0 mm 0.00 in0.0 mm 0.00 in0.0 mm
06:00 PM 25.6°F-3.6°C 20.6°F-6.3°C 81% Calm Calm -- 30.83 in1044.0 mb 0.00 in0.0 mm 0.00 in0.0 mm 0.00 in0.0 mm
06:15 PM 24.8°F-4.0°C 20.4°F-6.4°C 83% Calm Calm -- 30.83 in1044.0 mb 0.00 in0.0 mm 0.00 in0.0 mm 0.00 in0.0 mm
06:30 PM 24.5°F-4.2°C 21.2°F-6.0°C 87% Calm Calm -- 30.83 in1044.0 mb 0.00 in0.0 mm 0.00 in0.0 mm 0.00 in0.0 mm
06:45 PM 24.3°F-4.3°C 21.3°F-5.9°C 88% Calm Calm 2.0 mph3.2 kmh 30.84 in1044.4 mb 0.00 in0.0 mm 0.00 in0.0 mm 0.00 in0.0 mm
07:00 PM 24.3°F-4.3°C 21.5°F-5.8°C 89% 1.0 mph W1.6 kmh W 3.0 mph4.8 kmh 30.84 in1044.4 mb 0.00 in0.0 mm 0.00 in0.0 mm 0.00 in0.0 mm
07:15 PM 23.8°F-4.6°C 21.0°F-6.1°C 89% 1.0 mph W1.6 kmh W 3.0 mph4.8 kmh 30.84 in1044.4 mb 0.00 in0.0 mm 0.00 in0.0 mm 0.00 in0.0 mm
07:30 PM 22.7°F-5.2°C 20.2°F-6.6°C 90% Calm Calm 3.0 mph4.8 kmh 30.84 in1044.4 mb 0.00 in0.0 mm 0.00 in0.0 mm 0.00 in0.0 mm
07:45 PM 23.0°F-5.0°C 20.8°F-6.2°C 91% 1.0 mph NW1.6 kmh NW 3.0 mph4.8 kmh 30.84 in1044.4 mb 0.00 in0.0 mm 0.00 in0.0 mm 0.00 in0.0 mm
08:00 PM 23.2°F-4.9°C 21.0°F-6.1°C 91% 1.0 mph WNW1.6 kmh WNW 4.0 mph6.4 kmh 30.84 in1044.4 mb 0.00 in0.0 mm 0.00 in0.0 mm 0.00 in0.0 mm
08:15 PM 23.3°F-4.8°C 21.1°F-6.1°C 91% 1.0 mph NW1.6 kmh NW 5.0 mph8.0 kmh 30.84 in1044.4 mb 0.00 in0.0 mm 0.00 in0.0 mm 0.00 in0.0 mm
08:30 PM 23.4°F-4.8°C 21.2°F-6.0°C 91% 3.0 mph NW4.8 kmh NW 4.0 mph6.4 kmh 30.84 in1044.4 mb 0.00 in0.0 mm 0.00 in0.0 mm 0.00 in0.0 mm
08:45 PM 23.2°F-4.9°C 21.0°F-6.1°C 91% 2.0 mph NW3.2 kmh NW 3.0 mph4.8 kmh 30.84 in1044.4 mb 0.00 in0.0 mm 0.00 in0.0 mm 0.00 in0.0 mm
09:00 PM 22.3°F-5.4°C 19.8°F-6.8°C 90% 1.0 mph NW1.6 kmh NW 2.0 mph3.2 kmh 30.83 in1044.0 mb 0.00 in0.0 mm 0.00 in0.0 mm 0.00 in0.0 mm
09:15 PM 22.0°F-5.6°C 20.0°F-6.7°C 92% 1.0 mph WNW1.6 kmh WNW 4.0 mph6.4 kmh 30.83 in1044.0 mb 0.00 in0.0 mm 0.00 in0.0 mm 0.00 in0.0 mm
09:30 PM 22.2°F-5.4°C 20.2°F-6.6°C 92% 2.0 mph NW3.2 kmh NW 4.0 mph6.4 kmh 30.83 in1044.0 mb 0.00 in0.0 mm 0.00 in0.0 mm 0.00 in0.0 mm
09:45 PM 21.9°F-5.6°C 19.9°F-6.7°C 92% 1.0 mph NW1.6 kmh NW 2.0 mph3.2 kmh 30.83 in1044.0 mb 0.00 in0.0 mm 0.00 in0.0 mm 0.00 in0.0 mm
10:00 PM 21.7°F-5.7°C 19.7°F-6.8°C 92% 2.0 mph WNW3.2 kmh WNW 4.0 mph6.4 kmh 30.82 in1043.7 mb 0.00 in0.0 mm 0.00 in0.0 mm 0.00 in0.0 mm
10:15 PM 20.7°F-6.3°C 18.5°F-7.5°C 91% 1.0 mph WNW1.6 kmh WNW 3.0 mph4.8 kmh 30.82 in1043.7 mb 0.00 in0.0 mm 0.00 in0.0 mm 0.00 in0.0 mm
10:30 PM 19.8°F-6.8°C 17.9°F-7.8°C 92% Calm Calm 1.0 mph1.6 kmh 30.82 in1043.7 mb 0.00 in0.0 mm 0.00 in0.0 mm 0.00 in0.0 mm
10:45 PM 19.9°F-6.7°C 18.0°F-7.8°C 92% Calm Calm -- 30.81 in1043.3 mb 0.00 in0.0 mm 0.00 in0.0 mm 0.00 in0.0 mm
11:00 PM 19.1°F-7.2°C 17.4°F-8.1°C 93% Calm Calm -- 30.82 in1043.7 mb 0.00 in0.0 mm 0.00 in0.0 mm 0.00 in0.0 mm
11:15 PM 19.4°F-7.0°C 18.0°F-7.8°C 94% Calm Calm -- 30.82 in1043.7 mb 0.00 in0.0 mm 0.00 in0.0 mm 0.00 in0.0 mm
11:30 PM 19.1°F-7.2°C 17.4°F-8.1°C 93% Calm Calm -- 30.82 in1043.7 mb 0.00 in0.0 mm 0.00 in0.0 mm 0.00 in0.0 mm
11:45 PM 18.3°F-7.6°C 16.9°F-8.4°C 94% Calm Calm -- 30.83 in1044.0 mb 0.00 in0.0 mm 0.00 in0.0 mm 0.00 in0.0 mm